Time;durP1;ratioP1;P1;durP2;ratioP2;P2;SDS_P1;SDS_P2;PMS_P1;PMS_P2;Temp;Humidity;BMP_temperature;BMP_pressure;BME280_temperature;BME280_humidity;BME280_pressure;Samples;Min_cycle;Max_cycle;Signal;HPM_P1;HPM_P2
2022/12/10 00:00:15;;;;;;;;;63.50;47.50;;;;;3.50;69.40;100180.91;5053119;28;46039;-58
2022/12/10 00:02:40;;;;;;;;;67.00;50.25;;;;;3.45;69.27;100179.75;5052032;28;45819;-59
2022/12/10 00:05:06;;;;;;;;;55.50;46.50;;;;;3.24;68.92;100143.25;5051857;28;45740;-59
2022/12/10 00:07:31;;;;;;;;;60.00;48.25;;;;;3.04;69.54;100116.56;5053482;28;45629;-58
2022/12/10 00:09:57;;;;;;;;;64.25;50.50;;;;;3.28;69.46;100146.44;5052964;28;46007;-57
2022/12/10 00:12:22;;;;;;;;;63.50;47.75;;;;;3.53;69.44;100182.44;5053169;28;45413;-56
2022/12/10 00:14:48;;;;;;;;;63.00;45.75;;;;;3.56;69.56;100192.06;5053109;28;45490;-55
2022/12/10 00:17:13;;;;;;;;;60.25;48.75;;;;;3.23;69.44;100133.41;5053289;28;45516;-55
2022/12/10 00:19:39;;;;;;;;;59.00;49.50;;;;;3.52;69.90;100197.84;5051491;28;46435;-52
2022/12/10 00:22:04;;;;;;;;;55.50;44.75;;;;;3.52;70.33;100194.28;5051574;28;45494;-57
2022/12/10 00:24:30;;;;;;;;;65.00;50.00;;;;;3.31;70.31;100162.38;5051235;28;45731;-57
2022/12/10 00:26:55;;;;;;;;;68.25;48.00;;;;;3.52;69.68;100197.84;5052124;28;45688;-56
2022/12/10 00:29:21;;;;;;;;;62.33;50.00;;;;;3.47;69.96;100210.28;5051474;28;46090;-58
2022/12/10 00:31:46;;;;;;;;;64.25;50.50;;;;;3.43;70.02;100212.50;5051337;28;45488;-58
2022/12/10 00:34:12;;;;;;;;;58.25;46.25;;;;;3.41;70.27;100210.97;5052492;28;45439;-52
2022/12/10 00:36:45;;;;;;;;;66.00;47.00;;;;;3.29;70.29;100195.09;5026514;28;45423;-60
2022/12/10 00:39:12;;;;;;;;;57.50;47.75;;;;;3.37;70.22;100208.59;5055335;28;46006;-59
2022/12/10 00:41:37;;;;;;;;;57.00;46.25;;;;;3.29;70.35;100197.81;5055309;28;45401;-59
2022/12/10 00:44:03;;;;;;;;;51.25;44.25;;;;;3.31;70.63;100200.34;5055359;28;45402;-59
2022/12/10 00:46:29;;;;;;;;;59.25;46.75;;;;;2.94;70.40;100140.38;5057146;28;45607;-59
2022/12/10 00:48:54;;;;;;;;;54.25;46.75;;;;;3.42;70.90;100202.63;5056516;28;45520;-59
2022/12/10 00:51:21;;;;;;;;;65.50;47.75;;;;;3.46;70.16;100201.28;5057073;28;45468;-58
2022/12/10 00:53:48;;;;;;;;;60.00;48.33;;;;;3.46;70.29;100217.56;5057035;28;45388;-59
2022/12/10 00:56:14;;;;;;;;;62.50;50.75;;;;;3.45;70.69;100206.88;5055686;28;45595;-57
2022/12/10 00:58:40;;;;;;;;;59.50;49.50;;;;;3.51;70.32;100215.16;5056795;28;45900;-59
2022/12/10 01:01:17;;;;;;;;;62.67;48.33;;;;;3.52;70.25;100215.97;5056657;28;45333;-59
2022/12/10 01:03:43;;;;;;;;;58.75;49.25;;;;;3.46;70.32;100195.84;5055494;28;45500;-58
2022/12/10 01:06:32;;;;;;;;;63.00;50.50;;;;;3.52;70.80;100210.56;5057054;28;45829;-58
2022/12/10 01:08:59;;;;;;;;;67.75;51.50;;;;;3.56;70.48;100205.66;5056683;28;46247;-59
2022/12/10 01:11:28;;;;;;;;;64.50;50.25;;;;;3.52;70.36;100206.00;5056564;28;45346;-59
2022/12/10 01:13:54;;;;;;;;;61.75;48.00;;;;;3.52;70.63;100219.56;5056632;28;45333;-56
2022/12/10 01:16:20;;;;;;;;;64.75;48.50;;;;;3.44;70.13;100208.75;5056856;28;45467;-56
2022/12/10 01:18:46;;;;;;;;;70.50;52.25;;;;;3.51;70.64;100225.16;5055235;28;45351;-55
2022/12/10 01:21:15;;;;;;;;;60.50;47.50;;;;;3.52;70.24;100226.84;5056236;28;45376;-56
2022/12/10 01:23:41;;;;;;;;;65.75;49.00;;;;;3.23;70.24;100191.22;5056372;28;45171;-59
2022/12/10 01:26:10;;;;;;;;;59.75;45.75;;;;;3.50;70.05;100235.19;5056638;28;45296;-59
2022/12/10 01:28:37;;;;;;;;;65.00;49.75;;;;;3.49;70.87;100238.06;5056107;28;46201;-56
2022/12/10 01:31:05;;;;;;;;;69.50;51.50;;;;;3.51;70.91;100233.28;5056339;28;45388;-58
2022/12/10 01:33:30;;;;;;;;;71.50;54.75;;;;;3.49;69.85;100232.63;5055934;28;45285;-58
2022/12/10 01:36:01;;;;;;;;;61.75;46.75;;;;;3.29;70.28;100210.50;5038598;28;45454;-59
2022/12/10 01:38:26;;;;;;;;;61.25;49.25;;;;;3.49;70.52;100238.06;5056065;28;45366;-59
2022/12/10 01:40:52;;;;;;;;;61.00;48.25;;;;;3.52;70.40;100249.41;5043061;28;45665;-59
2022/12/10 01:43:17;;;;;;;;;63.75;49.75;;;;;3.55;70.36;100252.78;5054251;28;45353;-57
2022/12/10 01:45:43;;;;;;;;;65.50;49.25;;;;;3.54;70.50;100249.25;5039235;28;45684;-58
2022/12/10 01:48:08;;;;;;;;;65.25;50.00;;;;;3.56;70.73;100252.63;5054428;28;47467;-56
2022/12/10 01:50:34;;;;;;;;;60.75;47.75;;;;;3.58;70.55;100257.88;5055787;28;45266;-56
2022/12/10 01:52:59;;;;;;;;;60.75;47.25;;;;;3.56;70.05;100266.19;5054903;28;45356;-58
2022/12/10 01:55:49;;;;;;;;;64.00;49.75;;;;;3.57;70.42;100269.75;5056345;28;45254;-58
2022/12/10 01:58:16;;;;;;;;;44.25;39.25;;;;;3.55;70.21;100272.63;5054629;28;45534;-58
2022/12/10 02:01:09;;;;;;;;;51.75;43.75;;;;;3.44;71.00;100273.88;5054785;28;45369;-57
2022/12/10 02:03:56;;;;;;;;;49.00;42.00;;;;;3.34;71.57;100273.22;5055876;28;45649;-57
2022/12/10 02:07:04;;;;;;;;;53.25;42.25;;;;;3.35;70.96;100286.63;5054956;28;45910;-59
2022/12/10 02:09:38;;;;;;;;;70.25;50.00;;;;;3.35;70.52;100274.91;5054530;28;45485;-60
2022/12/10 02:12:28;;;;;;;;;72.75;54.75;;;;;3.30;71.30;100283.59;5054140;28;45519;-57
2022/12/10 02:15:17;;;;;;;;;60.50;46.50;;;;;3.25;70.87;100265.13;5055479;28;45387;-59
2022/12/10 02:17:50;;;;;;;;;58.50;47.00;;;;;3.42;71.10;100277.78;5054443;28;45291;-60
2022/12/10 02:20:19;;;;;;;;;65.25;50.75;;;;;3.43;70.49;100280.34;5037868;28;45491;-57
2022/12/10 02:23:27;;;;;;;;;60.00;47.00;;;;;3.42;70.71;100283.22;5055117;28;45430;-58
2022/12/10 02:26:20;;;;;;;;;62.00;49.50;;;;;3.45;70.82;100285.56;4957377;28;45479;-59
2022/12/10 02:29:15;;;;;;;;;64.50;50.25;;;;;3.43;70.64;100282.19;5055510;28;45354;-58
2022/12/10 02:31:44;;;;;;;;;65.50;49.75;;;;;3.43;70.94;100287.63;5054310;28;45494;-59
2022/12/10 02:34:09;;;;;;;;;62.75;48.00;;;;;3.42;71.14;100297.59;5053701;28;45346;-60
2022/12/10 02:36:36;;;;;;;;;62.00;46.50;;;;;3.33;70.46;100283.25;5020859;28;45373;-58
2022/12/10 02:39:02;;;;;;;;;56.25;44.75;;;;;3.38;71.01;100290.84;5054139;28;45480;-57
2022/12/10 02:41:34;;;;;;;;;64.00;47.50;;;;;3.41;70.97;100301.34;5034300;28;46351;-58
2022/12/10 02:43:59;;;;;;;;;57.75;43.75;;;;;3.32;71.08;100297.84;5035604;28;45411;-60
2022/12/10 02:46:27;;;;;;;;;58.50;45.00;;;;;3.37;71.05;100306.28;5019445;28;45323;-59
2022/12/10 02:48:52;;;;;;;;;59.50;45.50;;;;;3.35;71.15;100305.63;5052734;28;45605;-59
2022/12/10 02:51:18;;;;;;;;;54.25;42.75;;;;;3.34;71.25;100303.94;5049413;28;48671;-59
2022/12/10 02:53:44;;;;;;;;;48.00;43.50;;;;;3.28;71.47;100307.34;5052566;28;45261;-57
2022/12/10 02:56:22;;;;;;;;;54.50;42.00;;;;;3.28;71.75;100299.19;5055335;28;45366;-57
2022/12/10 02:58:54;;;;;;;;;51.75;43.00;;;;;3.18;71.58;100280.41;5054077;28;45311;-59
2022/12/10 03:01:32;;;;;;;;;45.75;40.75;;;;;3.31;71.54;100298.84;5054785;28;46352;-57
2022/12/10 03:04:25;;;;;;;;;53.00;43.75;;;;;3.31;71.50;100295.28;5036817;28;45332;-57
2022/12/10 03:06:52;;;;;;;;;46.50;40.00;;;;;3.29;71.00;100281.91;5038353;28;45284;-57
2022/12/10 03:09:40;;;;;;;;;56.00;44.00;;;;;3.28;71.25;100291.06;5053884;28;45431;-60
2022/12/10 03:12:20;;;;;;;;;57.25;45.50;;;;;3.23;71.61;100283.47;5070410;28;45729;-60
2022/12/10 03:14:45;;;;;;;;;53.40;43.20;;;;;3.24;71.81;100287.84;5037958;28;45362;-59
2022/12/10 03:17:11;;;;;;;;;51.75;43.50;;;;;3.26;71.71;100284.97;5036973;28;45539;-60
2022/12/10 03:19:41;;;;;;;;;58.75;43.00;;;;;3.20;71.44;100274.81;5041668;28;45477;-59
2022/12/10 03:22:07;;;;;;;;;53.50;44.50;;;;;3.36;70.97;100291.03;5033611;28;46324;-57
2022/12/10 03:24:33;;;;;;;;;57.00;45.50;;;;;3.36;71.72;100292.91;5033213;28;45322;-57
2022/12/10 03:26:58;;;;;;;;;39.00;34.50;;;;;3.36;71.36;100285.59;5033539;28;45365;-57
2022/12/10 03:29:30;;;;;;;;;57.75;44.75;;;;;3.35;71.30;100299.34;5034465;28;45526;-57
2022/12/10 03:31:55;;;;;;;;;52.00;42.00;;;;;3.28;71.47;100293.78;5033388;28;46900;-59
2022/12/10 03:34:21;;;;;;;;;48.75;42.50;;;;;3.10;71.47;100253.34;5032755;28;45361;-59
2022/12/10 03:36:46;;;;;;;;;48.75;40.25;;;;;3.34;70.94;100300.34;5016827;28;45208;-59
2022/12/10 03:39:12;;;;;;;;;52.25;40.50;;;;;3.32;71.56;100299.69;5033276;28;45638;-59
2022/12/10 03:41:37;;;;;;;;;50.50;40.25;;;;;3.25;71.63;100294.13;5033827;28;45358;-61
2022/12/10 03:44:03;;;;;;;;;55.50;37.25;;;;;3.20;71.64;100291.94;5033935;28;45366;-56
2022/12/10 03:46:29;;;;;;;;;59.25;43.50;;;;;3.10;71.21;100269.59;5034175;28;45343;-59
2022/12/10 03:48:55;;;;;;;;;53.00;41.75;;;;;3.38;70.91;100305.25;5034008;28;45547;-59
2022/12/10 03:51:21;;;;;;;;;47.20;38.20;;;;;3.34;71.41;100303.06;5033680;28;45541;-61
2022/12/10 03:53:48;;;;;;;;;39.00;36.50;;;;;3.06;71.19;100262.81;5033743;28;45398;-59
2022/12/10 03:56:14;;;;;;;;;46.60;40.80;;;;;2.66;71.51;100198.56;5032901;28;45390;-60
2022/12/10 03:58:39;;;;;;;;;49.25;36.00;;;;;3.36;71.99;100314.63;5033974;28;45371;-59
2022/12/10 04:01:05;;;;;;;;;46.75;37.50;;;;;3.12;71.25;100270.25;5033988;28;46652;-59
2022/12/10 04:03:30;;;;;;;;;43.75;39.50;;;;;3.45;70.70;100315.41;5033941;28;45344;-59
2022/12/10 04:06:03;;;;;;;;;37.75;34.50;;;;;3.15;70.96;100272.63;5052744;28;45370;-58
2022/12/10 04:08:29;;;;;;;;;43.80;34.00;;;;;3.04;70.38;100249.44;5037504;28;45329;-60
2022/12/10 04:10:54;;;;;;;;;36.50;36.00;;;;;3.47;70.71;100316.09;5035432;28;48289;-59
2022/12/10 04:18:48;;;;;;;;;31.75;27.00;;;;;3.45;70.79;100328.97;5043024;28;45364;-57
2022/12/10 04:26:55;;;;;;;;;48.20;37.40;;;;;3.38;70.50;100326.13;5057253;28;45428;-59
2022/12/10 04:29:29;;;;;;;;;37.60;34.20;;;;;3.29;69.70;100329.88;5055990;28;45544;-60
2022/12/10 04:31:55;;;;;;;;;29.60;24.80;;;;;3.34;70.13;100331.06;5029388;28;47025;-59
2022/12/10 04:34:21;;;;;;;;;48.75;39.00;;;;;3.29;69.40;100329.88;5056665;28;45349;-60
2022/12/10 04:36:47;;;;;;;;;45.25;35.75;;;;;3.26;69.92;100325.66;5057004;28;45186;-59
2022/12/10 04:39:12;;;;;;;;;45.50;37.50;;;;;3.28;69.98;100328.19;5057057;28;45319;-60
2022/12/10 04:41:41;;;;;;;;;38.25;34.75;;;;;3.31;69.67;100327.84;5056889;28;46735;-59
2022/12/10 04:44:07;;;;;;;;;42.40;34.60;;;;;3.19;70.10;100322.78;5057068;28;45391;-59
2022/12/10 04:46:33;;;;;;;;;42.00;37.00;;;;;3.35;69.70;100340.03;5039155;28;45492;-59
2022/12/10 04:48:58;;;;;;;;;44.25;35.00;;;;;3.29;69.99;100349.72;5057016;28;45412;-59
2022/12/10 04:51:24;;;;;;;;;38.75;37.25;;;;;3.32;70.40;100348.53;5056558;28;45377;-59
2022/12/10 04:53:49;;;;;;;;;29.25;25.75;;;;;3.37;69.96;100332.59;5056933;28;45968;-60
2022/12/10 04:56:15;;;;;;;;;40.50;31.50;;;;;3.32;69.92;100324.13;5057041;28;45432;-60
2022/12/10 04:58:40;;;;;;;;;41.50;32.75;;;;;3.41;70.16;100333.91;5057074;28;45349;-60
2022/12/10 05:01:08;;;;;;;;;33.75;32.00;;;;;3.19;69.57;100300.22;5056697;28;45496;-60
2022/12/10 05:03:33;;;;;;;;;41.20;35.00;;;;;3.39;69.51;100336.81;5056468;28;45314;-60
2022/12/10 05:06:06;;;;;;;;;33.50;28.50;;;;;3.14;69.42;100298.03;5056941;28;45309;-59
2022/12/10 05:08:31;;;;;;;;;41.00;30.20;;;;;3.45;68.69;100346.13;5056846;28;45795;-60
2022/12/10 05:11:04;;;;;;;;;43.50;35.75;;;;;3.44;68.97;100343.56;5056509;28;45436;-59
2022/12/10 05:13:30;;;;;;;;;34.00;28.60;;;;;3.49;68.76;100347.47;5056586;28;45388;-59
2022/12/10 05:15:56;;;;;;;;;32.50;28.00;;;;;3.45;68.34;100334.41;5056022;28;45278;-59
2022/12/10 05:18:21;;;;;;;;;32.25;26.75;;;;;3.51;68.12;100334.56;5056835;28;45326;-58
2022/12/10 05:20:47;;;;;;;;;23.75;19.75;;;;;3.52;67.93;100332.69;5037760;28;46113;-58
2022/12/10 05:23:27;;;;;;;;;30.25;25.00;;;;;3.47;67.57;100340.53;5036034;28;45403;-59
2022/12/10 05:26:26;;;;;;;;;30.60;25.20;;;;;3.47;67.66;100343.22;5036807;28;45309;-58
2022/12/10 05:28:53;;;;;;;;;26.00;22.20;;;;;3.25;67.25;100303.09;5035317;28;45481;-59
2022/12/10 05:31:26;;;;;;;;;22.80;19.60;;;;;3.45;67.28;100343.41;5035859;28;46729;-59
2022/12/10 05:33:52;;;;;;;;;25.80;24.40;;;;;3.43;67.34;100341.88;5036024;28;45387;-59
2022/12/10 05:36:19;;;;;;;;;24.25;20.50;;;;;3.43;67.24;100360.88;5036362;28;45345;-59
2022/12/10 05:38:45;;;;;;;;;21.60;19.40;;;;;3.23;66.84;100336.84;5036750;28;45314;-59
2022/12/10 05:41:13;;;;;;;;;26.00;23.25;;;;;2.99;67.08;100300.66;5035789;28;46149;-59
2022/12/10 05:43:38;;;;;;;;;23.00;20.40;;;;;3.40;67.61;100364.78;5035726;28;45285;-59
2022/12/10 05:46:06;;;;;;;;;28.00;22.00;;;;;3.27;67.30;100349.06;5034389;28;45378;-59
2022/12/10 05:48:31;;;;;;;;;32.50;25.50;;;;;3.37;67.60;100373.28;5034608;28;45514;-60
2022/12/10 05:50:57;;;;;;;;;36.00;28.25;;;;;3.10;68.45;100329.28;5035572;28;45412;-63
2022/12/10 05:53:23;;;;;;;;;31.75;25.50;;;;;3.46;68.14;100384.97;5033836;28;45449;-59
2022/12/10 05:55:48;;;;;;;;;32.25;25.75;;;;;3.51;68.09;100391.56;5034285;28;45327;-60
2022/12/10 05:58:14;;;;;;;;;29.75;24.25;;;;;3.51;68.12;100379.84;5035786;28;45401;-59
2022/12/10 06:00:40;;;;;;;;;39.25;25.50;;;;;3.33;67.96;100356.50;5035111;28;45440;-59
2022/12/10 06:03:05;;;;;;;;;26.75;23.00;;;;;3.41;67.88;100371.88;5034324;28;45455;-59
2022/12/10 06:05:40;;;;;;;;;30.25;27.25;;;;;3.39;67.79;100372.09;5033988;28;45315;-57
2022/12/10 06:08:06;;;;;;;;;27.50;20.75;;;;;3.15;68.43;100339.59;5036081;28;45404;-60
2022/12/10 06:10:34;;;;;;;;;31.25;24.25;;;;;3.37;68.71;100384.97;5033695;28;46153;-60
2022/12/10 06:12:59;;;;;;;;;37.40;27.00;;;;;3.38;68.60;100388.53;5034044;28;45347;-59
2022/12/10 06:15:25;;;;;;;;;28.75;24.25;;;;;3.32;68.65;100387.38;5034056;28;45457;-62
2022/12/10 06:17:50;;;;;;;;;30.00;23.00;;;;;3.13;68.50;100353.31;5035852;28;45245;-59
2022/12/10 06:20:16;;;;;;;;;33.50;30.25;;;;;3.29;68.20;100385.00;5049198;28;45443;-60
2022/12/10 06:22:42;;;;;;;;;35.75;26.50;;;;;3.35;68.57;100395.16;5055259;28;45305;-60
2022/12/10 06:25:08;;;;;;;;;34.50;28.75;;;;;3.41;67.91;100395.47;5053934;28;45696;-60
2022/12/10 06:27:33;;;;;;;;;34.60;28.60;;;;;3.39;67.86;100401.94;5055245;28;45381;-61
2022/12/10 06:29:58;;;;;;;;;28.50;24.00;;;;;3.39;68.39;100401.94;5055072;28;45791;-58
2022/12/10 06:32:24;;;;;;;;;34.00;27.75;;;;;3.46;67.96;100406.66;5054656;28;45456;-60
2022/12/10 06:34:50;;;;;;;;;26.50;22.25;;;;;3.49;68.27;100406.31;5055002;28;45368;-60
2022/12/10 06:37:15;;;;;;;;;28.50;26.75;;;;;3.55;67.78;100405.63;5055573;28;45417;-60
2022/12/10 06:39:40;;;;;;;;;27.50;24.75;;;;;3.53;67.97;100408.50;5054604;28;46344;-60
2022/12/10 06:42:06;;;;;;;;;30.00;25.00;;;;;3.49;67.72;100422.59;5055123;28;45287;-58
2022/12/10 06:44:32;;;;;;;;;28.50;24.50;;;;;3.31;68.26;100404.63;5055150;28;45408;-60
2022/12/10 06:46:57;;;;;;;;;31.50;24.50;;;;;3.45;68.74;100421.22;5054214;28;45445;-60
2022/12/10 06:49:22;;;;;;;;;32.50;26.25;;;;;3.49;67.83;100420.72;5054941;28;45967;-60
2022/12/10 06:51:48;;;;;;;;;29.75;25.25;;;;;3.49;67.80;100412.59;5070277;28;45266;-60
2022/12/10 06:54:14;;;;;;;;;39.25;30.00;;;;;3.51;67.82;100420.53;5055233;28;45884;-60
2022/12/10 06:56:39;;;;;;;;;33.75;25.50;;;;;3.54;67.71;100431.06;5055407;28;45410;-60
2022/12/10 06:59:06;;;;;;;;;30.00;24.00;;;;;3.57;67.86;100428.00;5054866;28;46066;-57
2022/12/10 07:01:31;;;;;;;;;21.40;17.20;;;;;3.58;67.65;100423.41;5055050;28;45440;-58
2022/12/10 07:03:57;;;;;;;;;29.50;28.25;;;;;3.50;67.48;100422.44;5053491;28;45398;-58
2022/12/10 07:06:23;;;;;;;;;23.50;19.75;;;;;3.49;68.28;100434.31;5053955;28;45457;-59
2022/12/10 07:08:49;;;;;;;;;32.60;26.60;;;;;3.46;67.58;100442.78;5053618;28;45402;-60
2022/12/10 07:11:16;;;;;;;;;26.75;22.75;;;;;3.48;67.67;100438.00;5053438;28;45274;-60
2022/12/10 07:13:41;;;;;;;;;31.75;28.00;;;;;3.53;67.70;100434.81;5054997;28;45413;-60
2022/12/10 07:16:14;;;;;;;;;26.25;24.25;;;;;3.60;67.77;100446.66;5055039;28;45324;-60
2022/12/10 07:18:39;;;;;;;;;27.00;23.80;;;;;3.57;67.77;100444.28;5036098;28;46506;-59
2022/12/10 07:21:14;;;;;;;;;32.25;28.75;;;;;3.34;67.41;100412.44;5034666;28;45420;-59
2022/12/10 07:23:39;;;;;;;;;27.00;25.60;;;;;3.59;67.59;100449.53;5034562;28;45344;-61
2022/12/10 07:26:05;;;;;;;;;26.50;22.75;;;;;3.60;67.49;100460.22;5034695;28;45198;-60
2022/12/10 07:28:30;;;;;;;;;34.75;24.75;;;;;3.60;67.52;100457.50;5034320;28;46770;-60
2022/12/10 07:31:03;;;;;;;;;39.50;23.75;;;;;3.35;67.48;100432.28;5034393;28;45417;-60
2022/12/10 07:33:28;;;;;;;;;26.00;23.60;;;;;3.47;68.05;100459.91;5034942;28;45428;-60
2022/12/10 07:35:54;;;;;;;;;28.00;24.75;;;;;3.56;67.63;100471.59;5034442;28;45437;-61
2022/12/10 07:38:19;;;;;;;;;27.50;18.25;;;;;3.39;68.15;100425.50;5034011;28;45692;-61
2022/12/10 07:40:45;;;;;;;;;23.50;21.50;;;;;3.60;67.35;100457.50;5053320;28;45468;-60
2022/12/10 07:43:10;;;;;;;;;32.75;24.00;;;;;3.62;67.94;100465.47;5037821;28;45421;-60
2022/12/10 07:45:36;;;;;;;;;34.75;28.25;;;;;3.63;67.48;100467.19;5036979;28;45358;-60
2022/12/10 07:48:01;;;;;;;;;30.50;24.50;;;;;3.61;67.46;100472.78;5038026;28;46517;-59
2022/12/10 07:50:27;;;;;;;;;31.75;24.75;;;;;3.53;67.15;100467.38;5036301;28;45968;-59
2022/12/10 07:52:52;;;;;;;;;32.75;29.50;;;;;3.25;67.83;100421.59;5038107;28;45509;-60
2022/12/10 07:55:18;;;;;;;;;29.00;22.75;;;;;3.58;67.84;100481.25;5036344;28;45500;-59
2022/12/10 07:57:43;;;;;;;;;29.00;23.00;;;;;3.54;67.91;100485.34;5037950;28;45468;-59
2022/12/10 08:00:09;;;;;;;;;32.50;22.75;;;;;3.57;67.22;100487.69;5037501;28;45454;-59
2022/12/10 08:02:35;;;;;;;;;26.60;23.00;;;;;3.59;67.78;100482.97;5037918;28;45409;-60
2022/12/10 08:05:00;;;;;;;;;28.00;23.25;;;;;3.65;67.66;100487.72;5036343;28;45406;-57
2022/12/10 08:07:26;;;;;;;;;24.75;22.25;;;;;3.62;67.35;100482.59;5037395;28;45670;-59
2022/12/10 08:09:51;;;;;;;;;31.25;28.25;;;;;3.48;67.28;100458.91;5037469;28;45372;-57
2022/12/10 08:12:17;;;;;;;;;24.50;20.50;;;;;3.69;67.07;100490.94;5037491;28;45325;-58
2022/12/10 08:14:42;;;;;;;;;27.75;26.25;;;;;3.74;66.57;100493.94;5037487;28;45519;-60
2022/12/10 08:17:08;;;;;;;;;31.00;23.00;;;;;3.76;67.44;100496.50;5037706;28;46331;-58
2022/12/10 08:19:33;;;;;;;;;31.00;26.75;;;;;3.79;66.86;100498.88;5005151;28;45522;-58
2022/12/10 08:21:59;;;;;;;;;34.50;28.75;;;;;3.75;67.42;100502.94;5057723;28;45313;-60
2022/12/10 08:24:24;;;;;;;;;31.00;16.75;;;;;3.78;66.89;100510.72;5056321;28;45464;-60
2022/12/10 08:26:50;;;;;;;;;29.25;25.75;;;;;3.69;67.64;100509.94;5057373;28;46385;-60
2022/12/10 08:29:15;;;;;;;;;39.00;29.50;;;;;3.76;67.72;100523.63;5057497;28;45179;-61
2022/12/10 08:31:41;;;;;;;;;32.00;22.25;;;;;3.60;67.23;100489.22;5057143;28;45190;-60
2022/12/10 08:34:17;;;;;;;;;26.75;25.75;;;;;3.82;67.19;100528.38;5057663;28;45286;-59
2022/12/10 08:36:42;;;;;;;;;40.80;29.80;;;;;3.86;66.94;100531.59;5009149;27;45655;-60
2022/12/10 08:39:10;;;;;;;;;35.00;27.25;;;;;3.85;67.25;100530.75;5086438;27;45484;-60
2022/12/10 08:41:35;;;;;;;;;34.20;32.20;;;;;3.91;67.58;100534.66;5077065;27;45387;-60
2022/12/10 08:44:01;;;;;;;;;31.25;24.00;;;;;3.98;67.18;100537.50;5077303;27;45411;-59
2022/12/10 08:46:28;;;;;;;;;28.50;23.75;;;;;3.76;67.27;100489.22;5076919;27;45959;-60
2022/12/10 08:48:54;;;;;;;;;35.60;22.20;;;;;4.06;66.58;100532.91;5077270;27;45364;-56
2022/12/10 08:51:19;;;;;;;;;31.25;26.25;;;;;4.09;66.29;100529.00;5075980;27;45278;-60
2022/12/10 08:53:45;;;;;;;;;27.00;24.50;;;;;4.01;66.45;100516.28;5077561;27;45189;-61
2022/12/10 08:56:11;;;;;;;;;32.75;21.75;;;;;4.16;66.88;100529.16;5076826;27;45346;-61
2022/12/10 08:58:37;;;;;;;;;32.00;21.50;;;;;4.20;66.52;100539.50;5076961;27;45351;-59
2022/12/10 09:01:10;;;;;;;;;32.20;26.80;;;;;4.16;66.32;100543.56;5077067;27;45388;-57
2022/12/10 09:03:36;;;;;;;;;34.40;25.20;;;;;4.22;66.27;100543.91;5076975;27;45262;-54
2022/12/10 09:06:06;;;;;;;;;29.00;25.00;;;;;4.21;66.41;100551.19;5092388;27;45971;-54
2022/12/10 09:08:32;;;;;;;;;24.20;21.20;;;;;3.89;66.62;100504.94;5092512;27;45428;-55
2022/12/10 09:10:57;;;;;;;;;31.25;25.75;;;;;4.11;66.30;100536.97;5076874;27;45284;-54
2022/12/10 09:13:23;;;;;;;;;26.75;23.50;;;;;4.22;66.61;100555.63;5077243;28;45625;-56
2022/12/10 09:15:50;;;;;;;;;25.75;21.25;;;;;4.13;65.89;100560.22;5076136;27;45651;-53
2022/12/10 09:18:15;;;;;;;;;28.00;23.40;;;;;4.14;65.57;100564.63;5076838;27;45208;-50
2022/12/10 09:20:41;;;;;;;;;30.50;24.00;;;;;4.19;66.12;100566.81;5067007;27;46083;-54
2022/12/10 09:23:06;;;;;;;;;27.25;23.25;;;;;4.15;65.70;100557.31;5042734;28;45762;-55
2022/12/10 09:25:32;;;;;;;;;24.25;20.75;;;;;3.93;65.91;100530.75;5047203;28;46090;-52
2022/12/10 09:27:57;;;;;;;;;33.50;25.00;;;;;4.21;65.35;100559.34;5055952;28;45401;-56
2022/12/10 09:30:23;;;;;;;;;33.75;28.75;;;;;4.23;65.47;100565.47;5056254;28;45417;-54
2022/12/10 09:32:48;;;;;;;;;25.50;22.25;;;;;4.14;65.72;100547.47;5056358;28;45217;-56
2022/12/10 09:35:14;;;;;;;;;25.50;23.00;;;;;4.28;65.79;100567.66;5056074;28;45462;-56
2022/12/10 09:37:39;;;;;;;;;27.00;23.50;;;;;4.34;65.17;100564.25;5054622;28;45419;-57
2022/12/10 09:40:05;;;;;;;;;28.50;24.25;;;;;4.41;64.43;100569.81;5055841;28;45506;-58
2022/12/10 09:42:44;;;;;;;;;26.00;19.75;;;;;4.45;64.53;100563.88;5054945;28;45372;-56
2022/12/10 09:45:47;;;;;;;;;30.20;23.20;;;;;4.48;64.42;100571.66;5055478;28;46653;-55
2022/12/10 09:48:28;;;;;;;;;34.20;25.40;;;;;4.53;64.73;100571.13;5055706;28;45344;-57
2022/12/10 09:51:18;;;;;;;;;37.20;33.00;;;;;4.39;64.14;100533.81;5054611;28;45456;-55
2022/12/10 09:53:44;;;;;;;;;35.80;25.60;;;;;4.58;63.95;100563.28;5054946;28;45417;-58
2022/12/10 09:56:18;;;;;;;;;37.50;26.00;;;;;4.62;64.05;100580.09;5055158;28;46157;-55
2022/12/10 09:58:43;;;;;;;;;25.40;23.20;;;;;4.64;64.56;100582.66;5043466;27;47818;-62
2022/12/10 10:01:09;;;;;;;;;30.00;25.25;;;;;4.41;63.54;100548.06;5069756;28;45399;-60
2022/12/10 10:03:38;;;;;;;;;30.75;25.00;;;;;4.69;63.75;100586.50;5056363;28;45418;-59
2022/12/10 10:06:04;;;;;;;;;26.20;21.60;;;;;4.50;63.72;100557.91;5073315;28;46906;-59
2022/12/10 10:08:32;;;;;;;;;35.25;25.75;;;;;4.42;63.23;100542.47;5067827;28;45673;-59
2022/12/10 10:11:01;;;;;;;;;26.80;26.40;;;;;4.75;64.19;100576.78;5052710;28;45454;-58
2022/12/10 10:13:44;;;;;;;;;30.50;28.00;;;;;4.88;63.21;100577.09;5061328;28;45329;-60
2022/12/10 10:16:23;;;;;;;;;27.80;22.80;;;;;4.73;63.29;100547.09;5058549;28;46703;-60
2022/12/10 10:18:59;;;;;;;;;25.60;23.80;;;;;4.91;63.71;100578.56;5064874;28;45430;-60
2022/12/10 10:21:30;;;;;;;;;30.80;26.40;;;;;4.90;63.38;100576.06;5041297;27;45396;-61
2022/12/10 10:23:56;;;;;;;;;36.00;31.75;;;;;4.91;63.64;100573.13;5040729;28;45612;-59
2022/12/10 10:26:24;;;;;;;;;31.75;26.00;;;;;4.93;63.21;100573.81;5037451;27;45898;-60
2022/12/10 10:28:49;;;;;;;;;34.40;29.40;;;;;4.94;63.46;100567.34;5037863;28;45944;-61
2022/12/10 10:31:21;;;;;;;;;29.00;25.25;;;;;4.73;63.35;100510.88;5047319;28;45463;-61
2022/12/10 10:33:50;;;;;;;;;30.40;26.20;;;;;5.07;63.40;100568.66;5055860;28;45833;-62
2022/12/10 10:36:15;;;;;;;;;28.60;22.00;;;;;5.06;63.64;100570.50;5061767;27;45792;-59
2022/12/10 10:38:47;;;;;;;;;31.00;27.75;;;;;4.96;63.67;100578.91;5047355;28;45564;-56
2022/12/10 10:41:12;;;;;;;;;36.20;31.60;;;;;4.94;63.54;100571.94;5061053;28;45780;-57
2022/12/10 10:43:44;;;;;;;;;25.00;23.75;;;;;4.93;64.02;100562.94;5049801;28;45889;-59
2022/12/10 10:46:17;;;;;;;;;35.80;29.80;;;;;4.39;63.55;100504.78;5068292;27;45387;-58
2022/12/10 10:48:43;;;;;;;;;33.00;29.60;;;;;4.74;63.62;100578.69;5066903;28;45424;-58
2022/12/10 10:51:12;;;;;;;;;41.50;27.50;;;;;4.85;63.25;100577.44;5066103;28;45529;-59
2022/12/10 10:53:54;;;;;;;;;37.80;27.20;;;;;4.87;64.08;100569.94;5065237;27;45692;-60
2022/12/10 10:56:29;;;;;;;;;31.40;27.60;;;;;4.42;63.23;100495.41;5046403;28;46035;-57
2022/12/10 10:59:05;;;;;;;;;38.20;34.60;;;;;4.76;63.24;100562.19;5046647;28;45791;-60
2022/12/10 11:01:50;;;;;;;;;33.40;28.80;;;;;4.65;62.53;100585.19;5046535;28;45456;-57
2022/12/10 11:04:16;;;;;;;;;40.50;34.75;;;;;4.47;63.46;100591.72;5046768;28;45429;-61
2022/12/10 11:06:42;;;;;;;;;32.00;28.20;;;;;4.26;63.86;100556.13;5048239;28;45786;-58
2022/12/10 11:09:07;;;;;;;;;34.75;32.75;;;;;4.72;63.74;100598.91;5030038;28;45653;-60
2022/12/10 11:11:43;;;;;;;;;29.00;25.00;;;;;4.66;62.95;100546.09;5029771;28;45480;-60
2022/12/10 11:14:36;;;;;;;;;36.20;30.20;;;;;4.94;62.73;100582.81;5046198;28;45520;-60
2022/12/10 11:17:09;;;;;;;;;34.60;27.40;;;;;5.05;62.85;100590.59;5057695;28;45658;-59
2022/12/10 11:19:34;;;;;;;;;34.00;26.60;;;;;4.86;61.83;100542.94;5045928;28;45977;-58
2022/12/10 11:22:16;;;;;;;;;33.75;30.00;;;;;5.25;62.42;100582.81;5054429;28;45542;-61
2022/12/10 11:24:41;;;;;;;;;33.40;29.00;;;;;5.36;62.53;100587.00;5046133;28;45411;-56
2022/12/10 11:27:14;;;;;;;;;28.00;22.00;;;;;7.90;58.01;100580.63;5028690;28;47304;-57
2022/12/10 11:29:49;;;;;;;;;28.80;23.40;;;;;11.88;48.50;100561.31;5047189;28;45788;-62
2022/12/10 11:32:30;;;;;;;;;27.00;24.00;;;;;13.68;43.73;100536.41;5031780;28;45925;-61
2022/12/10 11:35:14;;;;;;;;;33.80;29.40;;;;;12.02;44.70;100562.00;5031989;28;46002;-60